createdAt,value
2019-01-08T00:00:35.040Z,995.06
2019-01-08T00:01:34.955Z,995.01
2019-01-08T00:02:34.871Z,994.91
2019-01-08T00:03:34.786Z,995.08
2019-01-08T00:04:34.703Z,995.07
2019-01-08T00:05:34.633Z,995.14
2019-01-08T00:06:34.535Z,995.11
2019-01-08T00:07:34.451Z,994.97
2019-01-08T00:08:34.364Z,994.89
2019-01-08T00:09:34.282Z,994.91
2019-01-08T00:10:34.201Z,994.83
2019-01-08T00:11:34.115Z,994.85
2019-01-08T00:12:34.030Z,994.54
2019-01-08T00:13:33.946Z,994.67
2019-01-08T00:14:33.861Z,994.73
2019-01-08T00:15:33.777Z,994.80
2019-01-08T00:16:33.692Z,994.65
2019-01-08T00:17:33.607Z,994.66
2019-01-08T00:18:33.523Z,994.65
2019-01-08T00:19:33.439Z,994.75
2019-01-08T00:20:33.354Z,994.61
2019-01-08T00:21:33.272Z,994.83
2019-01-08T00:22:33.189Z,994.60
2019-01-08T00:23:33.102Z,994.47
2019-01-08T00:24:33.017Z,994.61
2019-01-08T00:25:32.934Z,994.39
2019-01-08T00:26:32.850Z,994.39
2019-01-08T00:27:32.814Z,994.48
2019-01-08T00:28:32.683Z,994.45
2019-01-08T00:29:32.596Z,994.54
2019-01-08T00:30:32.565Z,994.41
2019-01-08T00:31:32.439Z,994.36
2019-01-08T00:32:32.342Z,994.33
2019-01-08T00:33:32.259Z,994.29
2019-01-08T00:34:32.176Z,994.24
2019-01-08T00:35:32.181Z,994.18
2019-01-08T00:36:32.006Z,994.05
2019-01-08T00:37:31.922Z,994.28
2019-01-08T00:38:31.837Z,994.26
2019-01-08T00:39:31.761Z,994.23
2019-01-08T00:40:31.670Z,994.12
2019-01-08T00:41:31.586Z,994.00
2019-01-08T00:42:31.502Z,993.96
2019-01-08T00:43:31.417Z,994.18
2019-01-08T00:44:31.333Z,993.94
2019-01-08T00:45:31.248Z,993.94
2019-01-08T00:46:31.165Z,993.93
2019-01-08T00:47:31.079Z,993.95
2019-01-08T00:48:30.995Z,994.23
2019-01-08T00:49:30.912Z,993.90
2019-01-08T00:50:30.826Z,993.91
2019-01-08T00:51:30.743Z,993.77
2019-01-08T00:52:30.728Z,993.86
2019-01-08T00:53:30.575Z,993.93
2019-01-08T00:54:30.489Z,994.02
2019-01-08T00:55:30.407Z,993.79
2019-01-08T00:56:30.323Z,993.81
2019-01-08T00:57:30.237Z,993.73
2019-01-08T00:58:30.155Z,993.72
2019-01-08T00:59:30.069Z,993.74
2019-01-08T01:00:29.985Z,993.71
2019-01-08T01:01:29.900Z,993.70
2019-01-08T01:02:29.814Z,993.62
2019-01-08T01:03:29.731Z,993.59
2019-01-08T01:04:29.646Z,993.61
2019-01-08T01:05:29.563Z,993.57
2019-01-08T01:06:29.479Z,993.57
2019-01-08T01:07:29.415Z,993.49
2019-01-08T01:08:29.310Z,993.59
2019-01-08T01:09:29.225Z,993.41
2019-01-08T01:10:29.142Z,993.53
2019-01-08T01:11:29.058Z,993.44
2019-01-08T01:12:28.973Z,993.52
2019-01-08T01:13:28.889Z,993.51
2019-01-08T01:14:28.805Z,993.42
2019-01-08T01:15:28.720Z,993.42
2019-01-08T01:16:28.637Z,993.30
2019-01-08T01:17:28.552Z,993.33
2019-01-08T01:18:28.468Z,993.26
2019-01-08T01:19:28.383Z,993.38
2019-01-08T01:20:28.301Z,993.26
2019-01-08T01:21:28.215Z,993.29
2019-01-08T01:22:28.130Z,993.23
2019-01-08T01:23:28.047Z,993.26
2019-01-08T01:24:27.966Z,993.19
2019-01-08T01:25:27.878Z,993.04
2019-01-08T01:26:27.793Z,993.12
2019-01-08T01:27:27.709Z,993.06
2019-01-08T01:28:27.624Z,993.08
2019-01-08T01:29:27.541Z,993.05
2019-01-08T01:30:27.455Z,993.02
2019-01-08T01:31:27.372Z,993.06
2019-01-08T01:32:27.287Z,993.00
2019-01-08T01:33:27.202Z,993.03
2019-01-08T01:34:27.118Z,993.04
2019-01-08T01:35:27.040Z,993.10
2019-01-08T01:36:26.950Z,993.10
2019-01-08T01:37:26.869Z,993.11
2019-01-08T01:38:26.781Z,993.09
2019-01-08T01:39:26.700Z,992.99
2019-01-08T01:40:26.612Z,992.89
2019-01-08T01:41:26.529Z,993.02
2019-01-08T01:42:26.445Z,992.95
2019-01-08T01:43:26.362Z,992.68
2019-01-08T01:44:26.275Z,992.67
2019-01-08T01:45:26.193Z,992.83
2019-01-08T01:46:26.112Z,992.75
2019-01-08T01:47:26.024Z,992.52
2019-01-08T01:48:25.941Z,992.60
2019-01-08T01:49:25.857Z,992.56
2019-01-08T01:50:25.772Z,992.61
2019-01-08T01:51:25.687Z,992.70
2019-01-08T01:52:25.603Z,992.62
2019-01-08T01:53:25.522Z,992.58
2019-01-08T01:54:25.436Z,992.47
2019-01-08T01:55:25.350Z,992.49
2019-01-08T01:56:25.266Z,992.44
2019-01-08T01:57:25.181Z,992.52
2019-01-08T01:58:25.098Z,992.51
2019-01-08T01:59:25.014Z,992.32
2019-01-08T02:00:24.929Z,992.36
2019-01-08T02:01:24.846Z,992.32
2019-01-08T02:02:24.761Z,992.36
2019-01-08T02:03:24.678Z,992.34
2019-01-08T02:04:24.593Z,992.34
2019-01-08T02:05:24.508Z,992.26
2019-01-08T02:06:24.425Z,992.39
2019-01-08T02:07:24.340Z,992.39
2019-01-08T02:08:24.255Z,992.40
2019-01-08T02:09:24.174Z,992.23
2019-01-08T02:10:24.087Z,992.18
2019-01-08T02:11:24.003Z,992.16
2019-01-08T02:12:23.919Z,992.22
2019-01-08T02:13:23.835Z,992.09
2019-01-08T02:14:23.749Z,992.24
2019-01-08T02:15:23.667Z,992.24
2019-01-08T02:16:23.581Z,992.12
2019-01-08T02:17:23.497Z,992.19
2019-01-08T02:18:23.414Z,992.10
2019-01-08T02:19:23.329Z,992.13
2019-01-08T02:20:23.245Z,992.17
2019-01-08T02:21:23.161Z,992.11
2019-01-08T02:22:23.077Z,992.15
2019-01-08T02:23:22.993Z,992.19
2019-01-08T02:24:22.906Z,992.11
2019-01-08T02:25:22.872Z,992.15
2019-01-08T02:26:22.739Z,992.07
2019-01-08T02:27:22.657Z,992.21
2019-01-08T02:28:22.571Z,992.09
2019-01-08T02:29:22.487Z,992.14
2019-01-08T02:30:22.405Z,991.95
2019-01-08T02:31:22.319Z,991.97
2019-01-08T02:32:22.235Z,992.08
2019-01-08T02:33:22.151Z,991.98
2019-01-08T02:34:22.067Z,992.04
2019-01-08T02:35:22.033Z,992.05
2019-01-08T02:36:21.897Z,991.98
2019-01-08T02:37:21.813Z,992.12
2019-01-08T02:38:21.731Z,992.00
2019-01-08T02:39:21.646Z,992.00
2019-01-08T02:40:21.563Z,991.92
2019-01-08T02:41:21.597Z,991.81
2019-01-08T02:42:21.393Z,991.84
2019-01-08T02:43:21.310Z,991.91
2019-01-08T02:44:21.224Z,991.99
2019-01-08T02:45:21.140Z,991.97
2019-01-08T02:46:21.104Z,991.94
2019-01-08T02:47:20.973Z,991.75
2019-01-08T02:48:20.887Z,991.80
2019-01-08T02:49:20.807Z,991.76
2019-01-08T02:50:20.819Z,991.85
2019-01-08T02:51:20.637Z,991.73
2019-01-08T02:52:20.551Z,991.86
2019-01-08T02:53:20.465Z,991.77
2019-01-08T02:54:20.418Z,991.73
2019-01-08T02:55:20.399Z,991.65
2019-01-08T02:56:20.212Z,991.71
2019-01-08T02:57:20.130Z,991.70
2019-01-08T02:58:20.045Z,991.69
2019-01-08T02:59:25.059Z,991.69
2019-01-08T03:00:19.878Z,991.60
2019-01-08T03:01:19.792Z,991.78
2019-01-08T03:02:19.708Z,991.57
2019-01-08T03:03:19.625Z,991.73
2019-01-08T03:04:19.539Z,991.45
2019-01-08T03:05:19.455Z,991.58
2019-01-08T03:06:19.372Z,991.51
2019-01-08T03:07:19.287Z,991.52
2019-01-08T03:08:19.203Z,991.50
2019-01-08T03:09:19.118Z,991.50
2019-01-08T03:10:19.036Z,991.46
2019-01-08T03:11:18.951Z,991.56
2019-01-08T03:12:18.866Z,991.40
2019-01-08T03:13:18.783Z,991.35
2019-01-08T03:14:18.698Z,991.24
2019-01-08T03:15:18.613Z,991.19
2019-01-08T03:16:18.574Z,991.28
2019-01-08T03:17:18.445Z,991.27
2019-01-08T03:18:18.364Z,991.27
2019-01-08T03:19:18.278Z,991.22
2019-01-08T03:20:18.194Z,991.16
2019-01-08T03:21:18.112Z,991.01
2019-01-08T03:22:18.025Z,991.06
2019-01-08T03:23:17.942Z,990.83
2019-01-08T03:24:17.858Z,991.02
2019-01-08T03:25:17.774Z,990.83
2019-01-08T03:26:17.690Z,990.75
2019-01-08T03:27:17.607Z,990.74
2019-01-08T03:28:17.522Z,990.74
2019-01-08T03:29:17.438Z,990.73
2019-01-08T03:30:17.428Z,990.88
2019-01-08T03:31:17.273Z,990.70
2019-01-08T03:32:17.195Z,990.75
2019-01-08T03:33:17.103Z,990.60
2019-01-08T03:34:17.020Z,990.66
2019-01-08T03:35:17.036Z,990.56
2019-01-08T03:36:16.850Z,990.60
2019-01-08T03:37:16.769Z,990.53
2019-01-08T03:38:16.684Z,990.50
2019-01-08T03:39:16.599Z,990.52
2019-01-08T03:40:16.515Z,990.61
2019-01-08T03:41:16.431Z,990.55
2019-01-08T03:42:16.348Z,990.44
2019-01-08T03:43:16.265Z,990.46
2019-01-08T03:44:16.180Z,990.56
2019-01-08T03:45:16.097Z,990.58
2019-01-08T03:46:16.012Z,990.52
2019-01-08T03:47:15.929Z,990.50
2019-01-08T03:48:15.844Z,990.54
2019-01-08T03:49:15.763Z,990.51
2019-01-08T03:50:15.679Z,990.63
2019-01-08T03:51:15.594Z,990.63
2019-01-08T03:52:15.516Z,990.55
2019-01-08T03:53:15.427Z,990.51
2019-01-08T03:54:15.343Z,990.42
2019-01-08T03:55:15.260Z,990.34
2019-01-08T03:56:15.177Z,990.52
2019-01-08T03:57:15.091Z,990.47
2019-01-08T03:58:15.009Z,990.44
2019-01-08T03:59:14.926Z,990.07
2019-01-08T04:00:14.842Z,990.28
2019-01-08T04:01:14.845Z,990.34
2019-01-08T04:02:14.674Z,990.13
2019-01-08T04:03:14.592Z,990.22
2019-01-08T04:04:14.506Z,990.47
2019-01-08T04:05:14.423Z,990.25
2019-01-08T04:06:14.341Z,990.16
2019-01-08T04:07:14.257Z,990.27
2019-01-08T04:08:14.177Z,990.31
2019-01-08T04:09:14.090Z,990.26
2019-01-08T04:10:14.008Z,990.14
2019-01-08T04:11:13.954Z,990.24
2019-01-08T04:12:13.843Z,990.35
2019-01-08T04:13:13.856Z,990.34
2019-01-08T04:14:13.673Z,990.40
2019-01-08T04:15:13.591Z,990.37
2019-01-08T04:16:13.513Z,990.29
2019-01-08T04:17:13.423Z,990.29
2019-01-08T04:18:13.388Z,990.25
2019-01-08T04:19:13.256Z,990.30
2019-01-08T04:20:13.171Z,990.23
2019-01-08T04:21:13.090Z,990.19
2019-01-08T04:22:13.007Z,990.18
2019-01-08T04:23:12.924Z,990.14
2019-01-08T04:24:12.839Z,989.98
2019-01-08T04:25:12.755Z,990.12
2019-01-08T04:26:12.672Z,990.32
2019-01-08T04:27:12.590Z,990.37
2019-01-08T04:28:12.605Z,990.30
2019-01-08T04:29:12.422Z,990.32
2019-01-08T04:30:12.339Z,990.40
2019-01-08T04:31:12.256Z,990.45
2019-01-08T04:32:12.176Z,990.41
2019-01-08T04:33:12.089Z,990.39
2019-01-08T04:34:12.006Z,990.48
2019-01-08T04:35:11.923Z,990.47
2019-01-08T04:36:11.839Z,990.49
2019-01-08T04:37:11.755Z,990.45
2019-01-08T04:38:11.672Z,990.44
2019-01-08T04:39:11.591Z,990.41
2019-01-08T04:40:11.504Z,990.42
2019-01-08T04:41:11.422Z,990.36
2019-01-08T04:42:11.338Z,990.30
2019-01-08T04:43:11.258Z,990.24
2019-01-08T04:44:11.174Z,990.27
2019-01-08T04:45:11.090Z,990.27
2019-01-08T04:46:11.006Z,990.19
2019-01-08T04:47:10.922Z,990.28
2019-01-08T04:48:10.840Z,990.21
2019-01-08T04:49:10.755Z,990.22
2019-01-08T04:50:10.673Z,990.19
2019-01-08T04:51:10.591Z,990.23
2019-01-08T04:52:10.506Z,990.16
2019-01-08T04:53:10.422Z,990.13
2019-01-08T04:54:10.340Z,990.13
2019-01-08T04:55:10.258Z,990.08
2019-01-08T04:56:10.174Z,990.16
2019-01-08T04:57:10.090Z,990.07
2019-01-08T04:58:10.008Z,990.13
2019-01-08T04:59:09.925Z,990.19
2019-01-08T05:00:09.841Z,990.18
2019-01-08T05:01:09.759Z,990.20
2019-01-08T05:02:09.676Z,990.18
2019-01-08T05:03:09.594Z,990.15
2019-01-08T05:04:09.509Z,990.15
2019-01-08T05:05:09.428Z,990.16
2019-01-08T05:06:09.344Z,990.14
2019-01-08T05:07:09.264Z,990.09
2019-01-08T05:08:09.179Z,990.17
2019-01-08T05:09:09.096Z,990.16
2019-01-08T05:10:09.014Z,990.16
2019-01-08T05:11:08.933Z,990.16
2019-01-08T05:12:08.848Z,990.13
2019-01-08T05:13:08.766Z,990.10
2019-01-08T05:14:08.685Z,990.10
2019-01-08T05:15:08.600Z,990.08
2019-01-08T05:16:08.517Z,990.17
2019-01-08T05:17:08.436Z,990.15
2019-01-08T05:18:08.354Z,990.11
2019-01-08T05:19:08.271Z,990.09
2019-01-08T05:20:08.189Z,989.99
2019-01-08T05:21:08.106Z,989.96
2019-01-08T05:22:08.023Z,989.98
2019-01-08T05:23:07.942Z,989.97
2019-01-08T05:24:07.910Z,990.03
2019-01-08T05:25:07.776Z,990.01
2019-01-08T05:26:07.695Z,989.88
2019-01-08T05:27:07.612Z,989.96
2019-01-08T05:28:07.529Z,989.99
2019-01-08T05:29:07.448Z,989.90
2019-01-08T05:30:08.044Z,989.91
2019-01-08T05:31:07.287Z,989.88
2019-01-08T05:32:07.200Z,989.88
2019-01-08T05:33:07.121Z,989.96
2019-01-08T05:34:07.047Z,989.93
2019-01-08T05:35:06.956Z,989.92
2019-01-08T05:36:06.870Z,989.86
2019-01-08T05:37:06.789Z,989.86
2019-01-08T05:38:06.707Z,989.93
2019-01-08T05:39:06.630Z,989.87
2019-01-08T05:40:06.542Z,989.88
2019-01-08T05:41:06.460Z,989.88
2019-01-08T05:42:06.378Z,989.87
2019-01-08T05:43:06.297Z,989.88
2019-01-08T05:44:06.211Z,989.85
2019-01-08T05:45:06.130Z,989.82
2019-01-08T05:46:06.049Z,989.90
2019-01-08T05:47:05.972Z,989.81
2019-01-08T05:48:05.891Z,989.86
2019-01-08T05:49:05.803Z,989.84
2019-01-08T05:50:05.725Z,989.83
2019-01-08T05:51:05.640Z,989.86
2019-01-08T05:52:05.556Z,989.78
2019-01-08T05:53:05.474Z,989.81
2019-01-08T05:54:05.392Z,989.84
2019-01-08T05:55:05.310Z,989.83
2019-01-08T05:56:05.226Z,989.87
2019-01-08T05:57:05.144Z,989.85
2019-01-08T05:58:05.062Z,989.81
2019-01-08T05:59:04.981Z,989.81
2019-01-08T06:00:04.897Z,989.80
2019-01-08T06:01:04.816Z,989.76
2019-01-08T06:02:04.732Z,989.83
2019-01-08T06:03:04.652Z,989.83
2019-01-08T06:04:04.567Z,989.78
2019-01-08T06:05:04.488Z,989.80
2019-01-08T06:06:04.405Z,989.78
2019-01-08T06:07:04.322Z,989.81
2019-01-08T06:08:04.240Z,989.79
2019-01-08T06:09:04.157Z,989.82
2019-01-08T06:10:04.076Z,989.76
2019-01-08T06:11:03.994Z,989.79
2019-01-08T06:12:03.912Z,989.80
2019-01-08T06:13:03.829Z,989.77
2019-01-08T06:14:03.746Z,989.74
2019-01-08T06:15:03.666Z,989.70
2019-01-08T06:16:03.583Z,989.70
2019-01-08T06:17:03.501Z,989.71
2019-01-08T06:18:03.419Z,989.73
2019-01-08T06:19:03.336Z,989.75
2019-01-08T06:20:03.252Z,989.71
2019-01-08T06:21:03.171Z,989.71
2019-01-08T06:22:03.090Z,989.67
2019-01-08T06:23:03.006Z,989.69
2019-01-08T06:24:02.924Z,989.63
2019-01-08T06:25:02.843Z,989.65
2019-01-08T06:26:02.762Z,989.61
2019-01-08T06:27:02.679Z,989.60
2019-01-08T06:28:02.595Z,989.56
2019-01-08T06:29:02.513Z,989.50
2019-01-08T06:30:02.431Z,989.53
2019-01-08T06:31:02.350Z,989.46
2019-01-08T06:32:02.274Z,989.51
2019-01-08T06:33:02.184Z,989.49
2019-01-08T06:34:02.105Z,989.50
2019-01-08T06:35:02.101Z,989.47
2019-01-08T06:36:01.935Z,989.48
2019-01-08T06:37:01.855Z,989.50
2019-01-08T06:38:01.773Z,989.51
2019-01-08T06:39:01.690Z,989.47
2019-01-08T06:40:01.608Z,989.47
2019-01-08T06:41:01.526Z,989.47
2019-01-08T06:42:01.445Z,989.42
2019-01-08T06:43:01.362Z,989.48
2019-01-08T06:44:01.278Z,989.48
2019-01-08T06:45:01.196Z,989.45
2019-01-08T06:46:01.114Z,989.52
2019-01-08T06:47:01.032Z,989.52
2019-01-08T06:48:00.948Z,989.48
2019-01-08T06:49:00.866Z,989.54
2019-01-08T06:50:00.785Z,989.57
2019-01-08T06:51:00.741Z,989.56
2019-01-08T06:52:00.617Z,989.58
2019-01-08T06:53:00.534Z,989.60
2019-01-08T06:54:00.451Z,989.60
2019-01-08T06:55:00.370Z,989.57
2019-01-08T06:56:00.287Z,989.56
2019-01-08T06:57:00.204Z,989.55
2019-01-08T06:58:00.121Z,989.55
2019-01-08T06:59:00.041Z,989.51
2019-01-08T06:59:59.965Z,989.48
2019-01-08T07:00:59.872Z,989.46
2019-01-08T07:01:59.791Z,989.47
2019-01-08T07:02:59.709Z,989.41
2019-01-08T07:03:59.628Z,989.40
2019-01-08T07:04:59.543Z,989.37
2019-01-08T07:05:59.460Z,989.36
2019-01-08T07:06:59.378Z,989.27
2019-01-08T07:07:59.296Z,989.18
2019-01-08T07:08:59.212Z,989.14
2019-01-08T07:09:59.128Z,989.14
2019-01-08T07:10:59.048Z,989.18
2019-01-08T07:11:58.963Z,989.12
2019-01-08T07:12:58.881Z,989.12
2019-01-08T07:13:58.799Z,989.15
2019-01-08T07:14:58.729Z,989.12
2019-01-08T07:15:58.631Z,989.03
2019-01-08T07:16:58.550Z,989.12
2019-01-08T07:17:58.468Z,989.14
2019-01-08T07:18:58.386Z,989.16
2019-01-08T07:19:58.302Z,989.19
2019-01-08T07:20:58.218Z,989.18
2019-01-08T07:21:58.137Z,989.23
2019-01-08T07:22:58.054Z,989.21
2019-01-08T07:23:57.970Z,989.21
2019-01-08T07:24:57.888Z,989.23
2019-01-08T07:25:57.809Z,989.17
2019-01-08T07:26:57.723Z,989.15
2019-01-08T07:27:57.638Z,989.14
2019-01-08T07:28:57.555Z,989.10
2019-01-08T07:29:57.474Z,989.10
2019-01-08T07:30:57.395Z,989.16
2019-01-08T07:31:57.313Z,989.11
2019-01-08T07:32:57.224Z,989.17
2019-01-08T07:33:57.141Z,988.99
2019-01-08T07:34:57.062Z,989.07
2019-01-08T07:35:56.977Z,989.10
2019-01-08T07:36:56.893Z,989.10
2019-01-08T07:37:56.811Z,989.17
2019-01-08T07:38:56.730Z,989.11
2019-01-08T07:39:56.650Z,989.06
2019-01-08T07:40:56.562Z,989.06
2019-01-08T07:41:56.479Z,989.09
2019-01-08T07:42:56.397Z,989.07
2019-01-08T07:43:56.313Z,989.02
2019-01-08T07:44:56.229Z,989.02
2019-01-08T07:45:56.147Z,989.02
2019-01-08T07:46:56.065Z,988.98
2019-01-08T07:47:55.980Z,989.00
2019-01-08T07:48:55.900Z,988.99
2019-01-08T07:49:55.815Z,989.03
2019-01-08T07:50:55.732Z,989.00
2019-01-08T07:51:55.648Z,989.01
2019-01-08T07:52:55.566Z,989.00
2019-01-08T07:53:55.485Z,989.00
2019-01-08T07:54:55.400Z,988.97
2019-01-08T07:55:55.321Z,988.99
2019-01-08T07:56:55.233Z,988.97
2019-01-08T07:57:55.151Z,988.97
2019-01-08T07:58:55.069Z,989.03
2019-01-08T07:59:54.984Z,989.05
2019-01-08T08:00:54.906Z,989.08
2019-01-08T08:01:54.819Z,989.04
2019-01-08T08:02:54.737Z,989.05
2019-01-08T08:03:54.654Z,989.06
2019-01-08T08:04:54.671Z,989.05
2019-01-08T08:05:54.488Z,989.00
2019-01-08T08:06:54.405Z,989.11
2019-01-08T08:07:54.523Z,988.99
2019-01-08T08:08:54.240Z,989.07
2019-01-08T08:09:54.157Z,989.03
2019-01-08T08:10:54.074Z,989.12
2019-01-08T08:11:53.991Z,989.08
2019-01-08T08:12:53.909Z,989.07
2019-01-08T08:13:53.826Z,989.04
2019-01-08T08:14:53.743Z,989.04
2019-01-08T08:15:53.660Z,989.01
2019-01-08T08:16:53.576Z,988.94
2019-01-08T08:17:53.494Z,988.90
2019-01-08T08:18:53.411Z,988.92
2019-01-08T08:19:53.327Z,988.83
2019-01-08T08:20:53.246Z,988.90
2019-01-08T08:21:53.164Z,988.89
2019-01-08T08:22:53.081Z,988.89
2019-01-08T08:23:52.999Z,988.90
2019-01-08T08:24:52.915Z,988.93
2019-01-08T08:25:52.832Z,988.85
2019-01-08T08:26:52.752Z,988.94
2019-01-08T08:27:52.666Z,988.88
2019-01-08T08:28:52.585Z,988.90
2019-01-08T08:29:52.503Z,988.83
2019-01-08T08:30:58.556Z,988.89
2019-01-08T08:31:52.336Z,988.87
2019-01-08T08:32:52.253Z,988.81
2019-01-08T08:33:52.170Z,988.76
2019-01-08T08:34:52.089Z,988.81
2019-01-08T08:35:52.005Z,988.75
2019-01-08T08:36:51.923Z,988.80
2019-01-08T08:37:51.841Z,988.72
2019-01-08T08:38:51.759Z,988.72
2019-01-08T08:39:51.676Z,988.65
2019-01-08T08:40:51.595Z,988.59
2019-01-08T08:41:51.511Z,988.44
2019-01-08T08:42:51.429Z,988.46
2019-01-08T08:43:51.347Z,988.48
2019-01-08T08:44:51.264Z,988.47
2019-01-08T08:45:51.183Z,988.53
2019-01-08T08:46:51.100Z,988.48
2019-01-08T08:47:51.017Z,988.51
2019-01-08T08:48:50.935Z,988.47
2019-01-08T08:49:50.853Z,988.54
2019-01-08T08:50:50.772Z,988.48
2019-01-08T08:51:50.690Z,988.52
2019-01-08T08:52:50.606Z,988.57
2019-01-08T08:53:52.707Z,988.55
2019-01-08T08:54:50.442Z,988.51
2019-01-08T08:55:50.360Z,988.58
2019-01-08T08:56:50.284Z,988.56
2019-01-08T08:57:50.197Z,988.57
2019-01-08T08:58:50.113Z,988.52
2019-01-08T08:59:50.031Z,988.52
2019-01-08T09:00:49.949Z,988.52
2019-01-08T09:01:49.868Z,988.53
2019-01-08T09:02:49.785Z,988.59
2019-01-08T09:03:49.709Z,988.56
2019-01-08T09:04:49.627Z,988.47
2019-01-08T09:05:49.542Z,988.44
2019-01-08T09:06:49.461Z,988.49
2019-01-08T09:07:49.379Z,988.54
2019-01-08T09:08:49.298Z,988.49
2019-01-08T09:09:49.217Z,988.54
2019-01-08T09:10:49.137Z,988.45
2019-01-08T09:11:49.055Z,988.47
2019-01-08T09:12:48.975Z,988.49
2019-01-08T09:13:48.894Z,988.39
2019-01-08T09:14:48.813Z,988.46
2019-01-08T09:15:48.731Z,988.43
2019-01-08T09:16:48.651Z,988.46
2019-01-08T09:17:48.570Z,988.42
2019-01-08T09:18:48.490Z,988.38
2019-01-08T09:19:48.407Z,988.28
2019-01-08T09:20:48.428Z,988.40
2019-01-08T09:21:48.247Z,988.37
2019-01-08T09:22:48.166Z,988.35
2019-01-08T09:23:48.084Z,988.37
2019-01-08T09:24:48.003Z,988.27
2019-01-08T09:25:47.923Z,988.24
2019-01-08T09:26:47.845Z,988.23
2019-01-08T09:27:47.761Z,988.28
2019-01-08T09:28:47.677Z,988.22
2019-01-08T09:29:47.597Z,988.29
2019-01-08T09:30:47.517Z,988.21
2019-01-08T09:31:47.436Z,988.16
2019-01-08T09:32:47.354Z,988.25
2019-01-08T09:33:47.272Z,988.36
2019-01-08T09:34:47.193Z,988.27
2019-01-08T09:35:47.108Z,988.36
2019-01-08T09:36:47.029Z,988.29
2019-01-08T09:37:46.947Z,988.37
2019-01-08T09:38:46.866Z,988.32
2019-01-08T09:39:46.784Z,988.31
2019-01-08T09:40:46.703Z,988.30
2019-01-08T09:41:46.622Z,988.29
2019-01-08T09:42:46.539Z,988.34
2019-01-08T09:43:46.457Z,988.28
2019-01-08T09:44:46.378Z,988.27
2019-01-08T09:45:46.302Z,988.28
2019-01-08T09:46:46.215Z,988.29
2019-01-08T09:47:46.133Z,988.34
2019-01-08T09:48:46.051Z,988.13
2019-01-08T09:49:45.970Z,988.09
2019-01-08T09:50:45.889Z,988.04
2019-01-08T09:51:45.808Z,988.14
2019-01-08T09:52:45.727Z,988.08
2019-01-08T09:53:45.645Z,988.17
2019-01-08T09:54:45.564Z,988.11
2019-01-08T09:55:45.481Z,988.25
2019-01-08T09:56:45.400Z,988.09
2019-01-08T09:57:45.320Z,988.14
2019-01-08T09:58:45.337Z,988.06
2019-01-08T09:59:45.155Z,987.97
2019-01-08T10:00:45.075Z,988.04
2019-01-08T10:01:44.994Z,988.06
2019-01-08T10:02:44.913Z,988.11
2019-01-08T10:03:44.829Z,988.03
2019-01-08T10:04:44.749Z,988.09
2019-01-08T10:05:44.667Z,988.11
2019-01-08T10:06:44.588Z,988.00
2019-01-08T10:07:44.504Z,988.14
2019-01-08T10:08:44.474Z,988.12
2019-01-08T10:09:44.342Z,988.07
2019-01-08T10:10:44.262Z,988.06
2019-01-08T10:11:44.198Z,988.17
2019-01-08T10:12:44.098Z,988.07
2019-01-08T10:13:44.016Z,988.19
2019-01-08T10:14:43.935Z,988.15
2019-01-08T10:15:43.855Z,988.25
2019-01-08T10:16:43.774Z,988.20
2019-01-08T10:17:43.692Z,988.25
2019-01-08T10:18:43.609Z,988.26
2019-01-08T10:19:43.528Z,988.22
2019-01-08T10:20:43.446Z,988.36
2019-01-08T10:21:43.364Z,988.17
2019-01-08T10:22:43.323Z,988.29
2019-01-08T10:23:43.202Z,988.16
2019-01-08T10:24:43.120Z,988.29
2019-01-08T10:25:43.038Z,988.38
2019-01-08T10:26:42.957Z,988.17
2019-01-08T10:27:42.876Z,988.40
2019-01-08T10:28:42.791Z,988.51
2019-01-08T10:29:42.713Z,988.42
2019-01-08T10:30:42.629Z,988.41
2019-01-08T10:31:42.547Z,988.44
2019-01-08T10:32:42.465Z,988.48
2019-01-08T10:33:42.382Z,988.52
2019-01-08T10:34:42.301Z,988.42
2019-01-08T10:35:42.218Z,988.57
2019-01-08T10:36:42.136Z,988.50
2019-01-08T10:37:42.053Z,988.46
2019-01-08T10:38:41.972Z,988.49
2019-01-08T10:39:41.888Z,988.48
2019-01-08T10:40:41.811Z,988.44
2019-01-08T10:41:41.724Z,988.40
2019-01-08T10:42:41.643Z,988.36
2019-01-08T10:43:41.576Z,988.46
2019-01-08T10:44:41.475Z,988.40
2019-01-08T10:45:41.394Z,988.40
2019-01-08T10:46:41.311Z,988.43
2019-01-08T10:47:41.229Z,988.40
2019-01-08T10:48:41.145Z,988.35
2019-01-08T10:49:41.063Z,988.36
2019-01-08T10:50:40.981Z,988.36
2019-01-08T10:51:40.897Z,988.31
2019-01-08T10:52:40.814Z,988.40
2019-01-08T10:53:40.736Z,988.34
2019-01-08T10:54:40.650Z,988.35
2019-01-08T10:55:40.566Z,988.32
2019-01-08T10:56:40.484Z,988.29
2019-01-08T10:57:40.401Z,988.24
2019-01-08T10:58:40.320Z,988.21
2019-01-08T10:59:40.235Z,988.30
2019-01-08T11:00:40.154Z,988.16
2019-01-08T11:01:40.682Z,988.21
2019-01-08T11:02:39.991Z,988.08
2019-01-08T11:03:39.905Z,988.23
2019-01-08T11:04:39.822Z,988.09
2019-01-08T11:05:39.741Z,988.15
2019-01-08T11:06:39.658Z,988.09
2019-01-08T11:07:39.575Z,988.04
2019-01-08T11:08:39.493Z,987.95
2019-01-08T11:09:39.411Z,987.91
2019-01-08T11:10:39.329Z,987.83
2019-01-08T11:11:39.246Z,987.86
2019-01-08T11:12:39.164Z,987.84
2019-01-08T11:13:39.082Z,987.77
2019-01-08T11:14:39.003Z,987.75
2019-01-08T11:15:38.917Z,987.70
2019-01-08T11:16:38.836Z,987.72
2019-01-08T11:17:38.754Z,987.72
2019-01-08T11:18:38.673Z,987.80
2019-01-08T11:19:38.590Z,987.74
2019-01-08T11:20:38.508Z,987.74
2019-01-08T11:21:38.427Z,987.73
2019-01-08T11:22:38.344Z,987.73
2019-01-08T11:23:38.263Z,987.68
2019-01-08T11:24:38.181Z,987.56
2019-01-08T11:25:38.100Z,987.54
2019-01-08T11:26:38.018Z,987.60
2019-01-08T11:27:37.935Z,987.52
2019-01-08T11:28:37.854Z,987.54
2019-01-08T11:29:37.771Z,987.51
2019-01-08T11:30:37.691Z,987.51
2019-01-08T11:31:37.608Z,987.48
2019-01-08T11:32:37.528Z,987.54
2019-01-08T11:33:37.445Z,987.41
2019-01-08T11:34:37.363Z,987.44
2019-01-08T11:35:42.165Z,987.43
2019-01-08T11:36:37.199Z,987.43
2019-01-08T11:37:37.118Z,987.43
2019-01-08T11:38:37.036Z,987.37
2019-01-08T11:39:36.954Z,987.29
2019-01-08T11:40:36.872Z,987.36
2019-01-08T11:41:36.793Z,987.32
2019-01-08T11:42:36.708Z,987.24
2019-01-08T11:43:36.625Z,987.30
2019-01-08T11:44:36.543Z,987.23
2019-01-08T11:45:36.462Z,987.26
2019-01-08T11:46:36.380Z,987.36
2019-01-08T11:47:36.297Z,987.28
2019-01-08T11:48:36.214Z,987.33
2019-01-08T11:49:36.139Z,987.30
2019-01-08T11:50:36.052Z,987.24
2019-01-08T11:51:35.969Z,987.41
2019-01-08T11:52:35.887Z,987.25
2019-01-08T11:53:36.784Z,987.25
2019-01-08T11:54:40.823Z,987.22
2019-01-08T11:55:35.641Z,987.30
2019-01-08T11:56:35.687Z,987.24
2019-01-08T11:57:35.477Z,987.26
2019-01-08T11:58:35.394Z,987.25
2019-01-08T11:59:35.314Z,987.18
2019-01-08T12:00:35.229Z,987.21
2019-01-08T12:01:35.148Z,987.19
2019-01-08T12:02:35.064Z,987.26
2019-01-08T12:03:34.982Z,987.13
2019-01-08T12:04:34.900Z,987.23
2019-01-08T12:05:34.819Z,987.14
2019-01-08T12:06:34.737Z,987.15
2019-01-08T12:07:34.653Z,987.17
2019-01-08T12:08:34.570Z,987.09
2019-01-08T12:09:34.487Z,987.12
2019-01-08T12:10:34.407Z,987.09
2019-01-08T12:11:34.323Z,987.13
2019-01-08T12:12:34.242Z,987.14
2019-01-08T12:13:34.160Z,987.13
2019-01-08T12:14:34.078Z,987.12
2019-01-08T12:15:33.992Z,987.10
2019-01-08T12:16:33.912Z,987.16
2019-01-08T12:17:33.830Z,987.16
2019-01-08T12:18:33.746Z,987.08
2019-01-08T12:19:33.665Z,987.02
2019-01-08T12:20:33.583Z,987.08
2019-01-08T12:21:33.504Z,987.02
2019-01-08T12:22:40.640Z,987.03
2019-01-08T12:23:33.335Z,987.01
2019-01-08T12:24:33.251Z,987.01
2019-01-08T12:25:33.171Z,987.00
2019-01-08T12:26:33.090Z,986.90
2019-01-08T12:27:33.006Z,986.97